sensor_id;sensor_type;location;lat;lon;timestamp;P1;durP1;ratioP1;P2;durP2;ratioP2
18473;SDS011;30265;52.408;13.500;2022-08-19T00:05:20;18.90;;;11.45;;
18473;SDS011;30265;52.408;13.500;2022-08-19T00:15:43;16.52;;;11.82;;
18473;SDS011;30265;52.408;13.500;2022-08-19T00:26:06;17.85;;;12.18;;
18473;SDS011;30265;52.408;13.500;2022-08-19T00:36:30;18.17;;;11.50;;
18473;SDS011;30265;52.408;13.500;2022-08-19T00:46:53;22.20;;;15.83;;
18473;SDS011;30265;52.408;13.500;2022-08-19T00:57:22;23.45;;;13.57;;
18473;SDS011;30265;52.408;13.500;2022-08-19T01:07:47;21.83;;;14.30;;
18473;SDS011;30265;52.408;13.500;2022-08-19T01:18:12;27.95;;;16.83;;
18473;SDS011;30265;52.408;13.500;2022-08-19T01:28:37;24.73;;;14.43;;
18473;SDS011;30265;52.408;13.500;2022-08-19T01:39:02;25.17;;;15.50;;
18473;SDS011;30265;52.408;13.500;2022-08-19T01:49:27;25.88;;;16.55;;
18473;SDS011;30265;52.408;13.500;2022-08-19T01:59:49;22.35;;;13.05;;
18473;SDS011;30265;52.408;13.500;2022-08-19T02:10:14;23.58;;;15.25;;
18473;SDS011;30265;52.408;13.500;2022-08-19T02:20:38;20.27;;;12.82;;
18473;SDS011;30265;52.408;13.500;2022-08-19T02:31:02;20.77;;;12.77;;
18473;SDS011;30265;52.408;13.500;2022-08-19T02:41:24;21.33;;;14.00;;
18473;SDS011;30265;52.408;13.500;2022-08-19T02:51:48;20.95;;;13.38;;
18473;SDS011;30265;52.408;13.500;2022-08-19T03:02:10;28.38;;;16.52;;
18473;SDS011;30265;52.408;13.500;2022-08-19T03:12:34;28.20;;;16.52;;
18473;SDS011;30265;52.408;13.500;2022-08-19T03:22:56;33.38;;;17.85;;
18473;SDS011;30265;52.408;13.500;2022-08-19T03:33:19;29.63;;;18.63;;
18473;SDS011;30265;52.408;13.500;2022-08-19T03:43:47;33.35;;;19.67;;
18473;SDS011;30265;52.408;13.500;2022-08-19T03:54:13;28.45;;;16.45;;
18473;SDS011;30265;52.408;13.500;2022-08-19T04:04:45;25.80;;;15.53;;
18473;SDS011;30265;52.408;13.500;2022-08-19T04:15:08;27.45;;;17.38;;
18473;SDS011;30265;52.408;13.500;2022-08-19T04:25:34;27.50;;;17.43;;
18473;SDS011;30265;52.408;13.500;2022-08-19T04:35:58;27.00;;;17.33;;
18473;SDS011;30265;52.408;13.500;2022-08-19T04:46:20;25.38;;;16.02;;
18473;SDS011;30265;52.408;13.500;2022-08-19T04:57:03;25.73;;;16.42;;
18473;SDS011;30265;52.408;13.500;2022-08-19T05:07:27;23.45;;;15.65;;
18473;SDS011;30265;52.408;13.500;2022-08-19T05:17:52;21.50;;;14.00;;
18473;SDS011;30265;52.408;13.500;2022-08-19T05:28:37;21.73;;;14.82;;
18473;SDS011;30265;52.408;13.500;2022-08-19T05:39:00;20.90;;;14.82;;
18473;SDS011;30265;52.408;13.500;2022-08-19T05:49:23;25.47;;;14.27;;
18473;SDS011;30265;52.408;13.500;2022-08-19T05:59:46;20.83;;;15.07;;
18473;SDS011;30265;52.408;13.500;2022-08-19T06:10:12;22.25;;;14.88;;
18473;SDS011;30265;52.408;13.500;2022-08-19T06:20:34;22.52;;;14.23;;
18473;SDS011;30265;52.408;13.500;2022-08-19T06:31:15;22.13;;;14.30;;
18473;SDS011;30265;52.408;13.500;2022-08-19T06:41:40;24.23;;;13.85;;
18473;SDS011;30265;52.408;13.500;2022-08-19T06:52:12;21.73;;;14.50;;
18473;SDS011;30265;52.408;13.500;2022-08-19T07:02:35;23.20;;;15.27;;
18473;SDS011;30265;52.408;13.500;2022-08-19T07:12:57;20.80;;;14.27;;
18473;SDS011;30265;52.408;13.500;2022-08-19T07:23:20;24.63;;;15.65;;
18473;SDS011;30265;52.408;13.500;2022-08-19T07:33:42;20.40;;;14.63;;
18473;SDS011;30265;52.408;13.500;2022-08-19T07:44:08;20.17;;;15.13;;
18473;SDS011;30265;52.408;13.500;2022-08-19T07:54:31;21.05;;;15.20;;
18473;SDS011;30265;52.408;13.500;2022-08-19T08:04:58;23.00;;;15.73;;
18473;SDS011;30265;52.408;13.500;2022-08-19T08:15:41;20.90;;;15.40;;
18473;SDS011;30265;52.408;13.500;2022-08-19T08:36:27;23.77;;;14.50;;
18473;SDS011;30265;52.408;13.500;2022-08-19T08:46:51;18.45;;;14.52;;
18473;SDS011;30265;52.408;13.500;2022-08-19T08:57:18;28.23;;;16.65;;
18473;SDS011;30265;52.408;13.500;2022-08-19T09:07:47;21.63;;;15.20;;
18473;SDS011;30265;52.408;13.500;2022-08-19T09:18:16;20.50;;;15.18;;
18473;SDS011;30265;52.408;13.500;2022-08-19T09:28:40;21.57;;;15.53;;
18473;SDS011;30265;52.408;13.500;2022-08-19T09:39:07;20.52;;;16.98;;
18473;SDS011;30265;52.408;13.500;2022-08-19T09:49:37;27.98;;;18.75;;
18473;SDS011;30265;52.408;13.500;2022-08-19T09:59:59;27.15;;;18.13;;
18473;SDS011;30265;52.408;13.500;2022-08-19T10:10:27;23.73;;;17.67;;
18473;SDS011;30265;52.408;13.500;2022-08-19T10:21:01;20.92;;;14.00;;
18473;SDS011;30265;52.408;13.500;2022-08-19T10:31:32;23.08;;;16.55;;
18473;SDS011;30265;52.408;13.500;2022-08-19T10:42:15;20.88;;;15.63;;
18473;SDS011;30265;52.408;13.500;2022-08-19T11:03:09;19.75;;;15.13;;
18473;SDS011;30265;52.408;13.500;2022-08-19T11:13:33;22.73;;;13.68;;
18473;SDS011;30265;52.408;13.500;2022-08-19T11:23:57;18.55;;;13.80;;
18473;SDS011;30265;52.408;13.500;2022-08-19T11:34:24;20.92;;;13.45;;
18473;SDS011;30265;52.408;13.500;2022-08-19T11:44:47;16.38;;;11.48;;
18473;SDS011;30265;52.408;13.500;2022-08-19T11:55:10;21.85;;;13.68;;
18473;SDS011;30265;52.408;13.500;2022-08-19T12:05:32;25.53;;;17.90;;
18473;SDS011;30265;52.408;13.500;2022-08-19T12:15:55;15.90;;;10.75;;
18473;SDS011;30265;52.408;13.500;2022-08-19T12:26:18;17.50;;;11.15;;
18473;SDS011;30265;52.408;13.500;2022-08-19T12:36:41;14.15;;;10.18;;
18473;SDS011;30265;52.408;13.500;2022-08-19T12:47:03;13.27;;;10.50;;
18473;SDS011;30265;52.408;13.500;2022-08-19T12:57:28;13.43;;;10.43;;
18473;SDS011;30265;52.408;13.500;2022-08-19T13:07:53;14.00;;;9.82;;
18473;SDS011;30265;52.408;13.500;2022-08-19T13:18:18;12.25;;;9.73;;
18473;SDS011;30265;52.408;13.500;2022-08-19T13:28:40;15.30;;;9.57;;
18473;SDS011;30265;52.408;13.500;2022-08-19T13:39:20;13.23;;;9.48;;
18473;SDS011;30265;52.408;13.500;2022-08-19T13:49:43;17.08;;;10.88;;
18473;SDS011;30265;52.408;13.500;2022-08-19T14:00:08;18.02;;;11.10;;
18473;SDS011;30265;52.408;13.500;2022-08-19T14:10:31;16.58;;;11.13;;
18473;SDS011;30265;52.408;13.500;2022-08-19T14:20:55;16.45;;;11.05;;
18473;SDS011;30265;52.408;13.500;2022-08-19T14:31:18;18.65;;;12.15;;
18473;SDS011;30265;52.408;13.500;2022-08-19T14:52:05;15.70;;;10.57;;
18473;SDS011;30265;52.408;13.500;2022-08-19T15:02:29;14.40;;;9.60;;
18473;SDS011;30265;52.408;13.500;2022-08-19T15:12:54;14.57;;;11.10;;
18473;SDS011;30265;52.408;13.500;2022-08-19T15:23:17;11.15;;;8.90;;
18473;SDS011;30265;52.408;13.500;2022-08-19T15:33:40;13.00;;;10.63;;
18473;SDS011;30265;52.408;13.500;2022-08-19T15:44:07;13.88;;;9.45;;
18473;SDS011;30265;52.408;13.500;2022-08-19T15:54:29;17.95;;;12.90;;
18473;SDS011;30265;52.408;13.500;2022-08-19T16:04:53;16.48;;;12.68;;
18473;SDS011;30265;52.408;13.500;2022-08-19T16:15:41;16.77;;;11.13;;
18473;SDS011;30265;52.408;13.500;2022-08-19T16:26:04;17.30;;;13.05;;
18473;SDS011;30265;52.408;13.500;2022-08-19T16:36:28;17.30;;;10.98;;
18473;SDS011;30265;52.408;13.500;2022-08-19T16:46:52;15.75;;;10.45;;
18473;SDS011;30265;52.408;13.500;2022-08-19T16:57:18;13.20;;;8.35;;
18473;SDS011;30265;52.408;13.500;2022-08-19T17:07:40;19.70;;;10.35;;
18473;SDS011;30265;52.408;13.500;2022-08-19T17:18:03;13.82;;;10.90;;
18473;SDS011;30265;52.408;13.500;2022-08-19T17:38:50;11.93;;;8.50;;
18473;SDS011;30265;52.408;13.500;2022-08-19T17:49:15;11.05;;;8.65;;
18473;SDS011;30265;52.408;13.500;2022-08-19T17:59:39;14.10;;;8.63;;
18473;SDS011;30265;52.408;13.500;2022-08-19T18:10:01;11.75;;;8.23;;
18473;SDS011;30265;52.408;13.500;2022-08-19T18:20:23;12.77;;;8.00;;
18473;SDS011;30265;52.408;13.500;2022-08-19T18:30:46;15.32;;;9.57;;
18473;SDS011;30265;52.408;13.500;2022-08-19T18:41:08;12.00;;;8.90;;
18473;SDS011;30265;52.408;13.500;2022-08-19T18:51:49;15.07;;;9.38;;
18473;SDS011;30265;52.408;13.500;2022-08-19T19:02:11;13.80;;;10.03;;
18473;SDS011;30265;52.408;13.500;2022-08-19T19:12:36;14.80;;;10.63;;
18473;SDS011;30265;52.408;13.500;2022-08-19T19:23:01;15.80;;;10.50;;
18473;SDS011;30265;52.408;13.500;2022-08-19T19:33:25;17.50;;;11.15;;
18473;SDS011;30265;52.408;13.500;2022-08-19T19:43:47;22.73;;;14.17;;
18473;SDS011;30265;52.408;13.500;2022-08-19T19:54:30;24.50;;;15.27;;
18473;SDS011;30265;52.408;13.500;2022-08-19T20:04:52;26.98;;;16.25;;
18473;SDS011;30265;52.408;13.500;2022-08-19T20:15:17;27.63;;;17.25;;
18473;SDS011;30265;52.408;13.500;2022-08-19T20:26:08;28.67;;;16.73;;
18473;SDS011;30265;52.408;13.500;2022-08-19T20:37:05;28.85;;;17.13;;
18473;SDS011;30265;52.408;13.500;2022-08-19T20:47:33;25.00;;;14.93;;
18473;SDS011;30265;52.408;13.500;2022-08-19T20:58:05;24.02;;;14.85;;
18473;SDS011;30265;52.408;13.500;2022-08-19T21:08:38;23.58;;;15.85;;
18473;SDS011;30265;52.408;13.500;2022-08-19T21:19:20;27.70;;;16.80;;
18473;SDS011;30265;52.408;13.500;2022-08-19T21:29:55;25.90;;;16.52;;
18473;SDS011;30265;52.408;13.500;2022-08-19T21:40:27;27.02;;;16.15;;
18473;SDS011;30265;52.408;13.500;2022-08-19T21:50:50;19.47;;;13.07;;
18473;SDS011;30265;52.408;13.500;2022-08-19T22:01:12;24.33;;;15.65;;
18473;SDS011;30265;52.408;13.500;2022-08-19T22:11:34;16.13;;;10.85;;
18473;SDS011;30265;52.408;13.500;2022-08-19T22:21:59;19.10;;;11.05;;
18473;SDS011;30265;52.408;13.500;2022-08-19T22:32:21;30.23;;;17.00;;
18473;SDS011;30265;52.408;13.500;2022-08-19T22:42:49;36.70;;;19.92;;
18473;SDS011;30265;52.408;13.500;2022-08-19T22:53:21;40.83;;;20.13;;
18473;SDS011;30265;52.408;13.500;2022-08-19T23:03:43;36.00;;;19.40;;
18473;SDS011;30265;52.408;13.500;2022-08-19T23:14:06;33.67;;;19.50;;
18473;SDS011;30265;52.408;13.500;2022-08-19T23:24:29;30.70;;;17.52;;
18473;SDS011;30265;52.408;13.500;2022-08-19T23:34:51;30.27;;;17.83;;
18473;SDS011;30265;52.408;13.500;2022-08-19T23:45:16;29.83;;;16.87;;
18473;SDS011;30265;52.408;13.500;2022-08-19T23:55:43;29.48;;;16.55;;
